Terminal Aerodrome Forecast
Issued by NWS

Home | Current Version | Previous Version | Text Only | Print | Product List | Glossary On
Versions: 1 2 3 4 5 6 7 8 9 10 11 12 13 14 15 16 17 18
000
FTUS43 KGLD 260544 AAC
TAFMCK
TAF AMD
KMCK 260544Z 2606/2706 VRB04KT P6SM VCTS SCT050CB BKN090
     FM260700 VRB06KT P6SM SCT080 BKN140
     FM260900 23007KT P6SM FEW070 BKN120
     FM261200 30012KT P6SM BKN100
     FM261500 35015G23KT P6SM BKN035
     FM262100 02013KT P6SM BKN040
     FM270200 03009KT P6SM BKN030=

USA.gov is the U.S. government's official web portal to all federal, state and local government web resources and services.